Time;durP1;ratioP1;P1;durP2;ratioP2;P2;SDS_P1;SDS_P2;PMS_P1;PMS_P2;Temp;Humidity;BMP_temperature;BMP_pressure;BME280_temperature;BME280_humidity;BME280_pressure;Samples;Min_cycle;Max_cycle;Signal;HPM_P1;HPM_P2
2023/12/25 00:00:41;;;;;;;;;;;;;;;;;;5037405;28;19931;-86
2023/12/25 00:03:07;;;;;;;;;;;;;;;;;;5033938;28;19921;-86
2023/12/25 00:05:33;;;;;;;;;;;;;;;;;;5053678;28;19927;-86
2023/12/25 00:07:59;;;;;;;;;;;;;;;;;;5051523;28;19921;-84
2023/12/25 00:10:25;;;;;;;;;;;;;;;;;;5035349;28;19927;-85
2023/12/25 00:12:51;;;;;;;;;;;;;;;;;;5036527;28;20366;-86
2023/12/25 00:15:17;;;;;;;;;;;;;;;;;;5052731;28;20158;-86
2023/12/25 00:17:43;;;;;;;;;;;;;;;;;;5034168;28;19960;-87
2023/12/25 00:20:10;;;;;;;;;;;;;;;;;;5036011;28;20488;-87
2023/12/25 00:22:36;;;;;;;;;;;;;;;;;;5053163;28;20293;-86
2023/12/25 00:25:02;;;;;;;;;;;;;;;;;;5019276;28;19974;-87
2023/12/25 00:27:28;;;;;;;;;;;;;;;;;;5028308;28;19924;-86
2023/12/25 00:29:54;;;;;;;;;;;;;;;;;;5030339;28;19944;-85
2023/12/25 00:32:20;;;;;;;;;;;;;;;;;;5053180;28;20054;-85
2023/12/25 00:34:46;;;;;;;;;;;;;;;;;;5051844;28;19971;-85
2023/12/25 00:37:12;;;;;;;;;;;;;;;;;;5053131;28;19920;-86
2023/12/25 00:39:38;;;;;;;;;;;;;;;;;;5053539;28;19924;-85
2023/12/25 00:42:04;;;;;;;;;;;;;;;;;;5051972;28;19928;-85
2023/12/25 00:44:30;;;;;;;;;;;;;;;;;;5053548;28;19921;-85
2023/12/25 00:46:56;;;;;;;;;;;;;;;;;;5053658;28;20402;-85
2023/12/25 00:49:22;;;;;;;;;;;;;;;;;;5052341;28;20522;-85
2023/12/25 00:51:47;;;;;;;;;;;;;;;;;;5052372;28;20259;-85
2023/12/25 00:54:13;;;;;;;;;;;;;;;;;;5035910;28;19920;-85
2023/12/25 00:56:39;;;;;;;;;;;;;;;;;;5036702;28;19927;-84
2023/12/25 00:59:05;;;;;;;;;;;;;;;;;;5051131;28;19921;-85
2023/12/25 01:01:31;;;;;;;;;;;;;;;;;;5053285;28;20390;-84
2023/12/25 01:03:57;;;;;;;;;;;;;;;;;;5052618;28;19920;-84
2023/12/25 01:06:23;;;;;;;;;;;;;;;;;;5035743;28;19917;-85
2023/12/25 01:08:49;;;;;;;;;;;;;;;;;;5052737;28;19959;-86
2023/12/25 01:11:15;;;;;;;;;;;;;;;;;;5065859;28;19920;-85
2023/12/25 01:13:41;;;;;;;;;;;;;;;;;;5051930;28;20381;-86
2023/12/25 01:16:07;;;;;;;;;;;;;;;;;;5049102;28;19960;-85
2023/12/25 01:18:33;;;;;;;;;;;;;;;;;;5035866;28;19928;-85
2023/12/25 01:20:59;;;;;;;;;;;;;;;;;;5036376;28;19969;-85
2023/12/25 01:23:25;;;;;;;;;;;;;;;;;;5065477;28;20365;-85
2023/12/25 01:25:51;;;;;;;;;;;;;;;;;;5051899;28;19924;-84
2023/12/25 01:28:17;;;;;;;;;;;;;;;;;;5034402;28;19935;-85
2023/12/25 01:30:43;;;;;;;;;;;;;;;;;;5036137;28;19927;-84
2023/12/25 01:33:09;;;;;;;;;;;;;;;;;;5038282;28;20397;-84
2023/12/25 01:35:35;;;;;;;;;;;;;;;;;;5035487;28;19921;-85
2023/12/25 01:38:01;;;;;;;;;;;;;;;;;;5035607;28;19927;-85
2023/12/25 01:40:27;;;;;;;;;;;;;;;;;;5041137;28;19927;-85
2023/12/25 01:42:53;;;;;;;;;;;;;;;;;;5047933;28;20391;-85
2023/12/25 01:45:19;;;;;;;;;;;;;;;;;;5059494;28;20358;-85
2023/12/25 01:47:45;;;;;;;;;;;;;;;;;;5041372;28;19920;-85
2023/12/25 01:50:11;;;;;;;;;;;;;;;;;;5050945;28;19927;-84
2023/12/25 01:52:37;;;;;;;;;;;;;;;;;;5050846;28;19921;-85
2023/12/25 01:55:03;;;;;;;;;;;;;;;;;;5053492;28;19921;-85
2023/12/25 01:57:29;;;;;;;;;;;;;;;;;;5034146;28;19924;-85
2023/12/25 01:59:55;;;;;;;;;;;;;;;;;;5052421;28;20008;-84
2023/12/25 02:02:22;;;;;;;;;;;;;;;;;;5034932;28;19921;-85
2023/12/25 02:04:48;;;;;;;;;;;;;;;;;;5051043;28;20373;-85
2023/12/25 02:07:14;;;;;;;;;;;;;;;;;;5034713;28;19920;-85
2023/12/25 02:09:40;;;;;;;;;;;;;;;;;;5045007;28;20007;-85
2023/12/25 02:12:06;;;;;;;;;;;;;;;;;;5037700;28;20472;-85
2023/12/25 02:14:32;;;;;;;;;;;;;;;;;;5050085;28;21474;-85
2023/12/25 02:16:58;;;;;;;;;;;;;;;;;;5051894;28;19979;-85
2023/12/25 02:19:24;;;;;;;;;;;;;;;;;;5047342;28;19924;-86
2023/12/25 02:21:50;;;;;;;;;;;;;;;;;;5035078;28;19920;-84
2023/12/25 02:24:16;;;;;;;;;;;;;;;;;;5052467;28;19975;-85
2023/12/25 02:26:42;;;;;;;;;;;;;;;;;;5045413;28;19920;-84
2023/12/25 02:29:08;;;;;;;;;;;;;;;;;;5033927;28;19927;-84
2023/12/25 02:31:34;;;;;;;;;;;;;;;;;;5043415;28;19920;-85
2023/12/25 02:34:00;;;;;;;;;;;;;;;;;;5054431;28;19925;-85
2023/12/25 02:36:26;;;;;;;;;;;;;;;;;;5051087;28;19924;-85
2023/12/25 02:38:52;;;;;;;;;;;;;;;;;;5051288;28;19987;-85
2023/12/25 02:41:18;;;;;;;;;;;;;;;;;;5050902;28;19986;-85
2023/12/25 02:43:44;;;;;;;;;;;;;;;;;;5033211;28;19921;-86
2023/12/25 02:46:10;;;;;;;;;;;;;;;;;;5051459;28;19974;-84
2023/12/25 02:48:36;;;;;;;;;;;;;;;;;;5034287;28;19924;-84
2023/12/25 02:51:02;;;;;;;;;;;;;;;;;;5051101;28;19920;-85
2023/12/25 02:53:30;;;;;;;;;;;;;;;;;;5050630;28;19921;-85
2023/12/25 02:55:56;;;;;;;;;;;;;;;;;;5034696;28;20373;-85
2023/12/25 02:58:22;;;;;;;;;;;;;;;;;;5032544;28;20000;-86
2023/12/25 03:00:48;;;;;;;;;;;;;;;;;;5034353;28;19935;-85
2023/12/25 03:03:14;;;;;;;;;;;;;;;;;;5034185;28;20362;-85
2023/12/25 03:05:40;;;;;;;;;;;;;;;;;;5033421;28;19928;-85
2023/12/25 03:08:07;;;;;;;;;;;;;;;;;;5034695;28;19925;-85
2023/12/25 03:10:32;;;;;;;;;;;;;;;;;;5050692;28;19968;-85
2023/12/25 03:12:58;;;;;;;;;;;;;;;;;;5050703;28;20385;-86
2023/12/25 03:15:24;;;;;;;;;;;;;;;;;;5051752;28;20317;-86
2023/12/25 03:17:50;;;;;;;;;;;;;;;;;;5038334;28;19943;-85
2023/12/25 03:20:16;;;;;;;;;;;;;;;;;;5054917;28;19950;-85
2023/12/25 03:22:44;;;;;;;;;;;;;;;;;;5053372;28;19928;-85
2023/12/25 03:25:10;;;;;;;;;;;;;;;;;;5038482;28;19923;-85
2023/12/25 03:27:36;;;;;;;;;;;;;;;;;;5053722;28;19931;-86
2023/12/25 03:30:02;;;;;;;;;;;;;;;;;;5055337;28;19920;-86
2023/12/25 03:32:28;;;;;;;;;;;;;;;;;;5038202;28;19974;-85
2023/12/25 03:34:54;;;;;;;;;;;;;;;;;;5037631;28;19925;-86
2023/12/25 03:37:20;;;;;;;;;;;;;;;;;;5038406;28;20274;-85
2023/12/25 03:39:46;;;;;;;;;;;;;;;;;;5054652;28;19924;-85
2023/12/25 03:42:12;;;;;;;;;;;;;;;;;;5037111;28;20369;-83
2023/12/25 03:44:38;;;;;;;;;;;;;;;;;;5037601;28;19924;-85
2023/12/25 03:47:04;;;;;;;;;;;;;;;;;;5054813;28;19947;-85
2023/12/25 03:49:30;;;;;;;;;;;;;;;;;;5036815;28;19921;-86
2023/12/25 03:51:56;;;;;;;;;;;;;;;;;;5054747;28;19924;-84
2023/12/25 03:54:22;;;;;;;;;;;;;;;;;;5054356;28;19920;-85
2023/12/25 03:56:48;;;;;;;;;;;;;;;;;;5037541;28;19943;-85
2023/12/25 03:59:14;;;;;;;;;;;;;;;;;;5053671;28;20420;-86
2023/12/25 04:01:40;;;;;;;;;;;;;;;;;;5037553;28;20270;-85
2023/12/25 04:04:06;;;;;;;;;;;;;;;;;;5037134;28;19924;-86
2023/12/25 04:06:32;;;;;;;;;;;;;;;;;;5054050;28;20028;-85
2023/12/25 04:08:57;;;;;;;;;;;;;;;;;;5053357;28;19920;-85
2023/12/25 04:11:23;;;;;;;;;;;;;;;;;;5037991;28;19928;-84
2023/12/25 04:13:53;;;;;;;;;;;;;;;;;;5035329;28;19927;-86
2023/12/25 04:16:20;;;;;;;;;;;;;;;;;;5054443;28;20025;-86
2023/12/25 04:18:46;;;;;;;;;;;;;;;;;;5036793;28;19929;-85
2023/12/25 04:21:12;;;;;;;;;;;;;;;;;;5053748;28;19944;-84
2023/12/25 04:23:38;;;;;;;;;;;;;;;;;;5053357;28;19920;-85
2023/12/25 04:26:04;;;;;;;;;;;;;;;;;;5037276;28;19921;-86
2023/12/25 04:28:30;;;;;;;;;;;;;;;;;;5036179;28;19983;-86
2023/12/25 04:30:56;;;;;;;;;;;;;;;;;;5037452;28;20134;-85
2023/12/25 04:33:22;;;;;;;;;;;;;;;;;;5036722;28;20361;-85
2023/12/25 04:35:48;;;;;;;;;;;;;;;;;;5052418;28;19935;-85
2023/12/25 04:38:14;;;;;;;;;;;;;;;;;;5037091;28;19920;-85
2023/12/25 04:40:40;;;;;;;;;;;;;;;;;;5053276;28;19921;-85
2023/12/25 04:43:05;;;;;;;;;;;;;;;;;;5035860;28;19920;-84
2023/12/25 04:45:31;;;;;;;;;;;;;;;;;;5036786;28;20385;-82
2023/12/25 04:47:57;;;;;;;;;;;;;;;;;;5053844;28;20261;-86
2023/12/25 04:50:23;;;;;;;;;;;;;;;;;;5053381;28;19928;-85
2023/12/25 04:52:49;;;;;;;;;;;;;;;;;;5052287;28;19970;-85
2023/12/25 04:55:15;;;;;;;;;;;;;;;;;;5053180;28;19964;-85
2023/12/25 04:57:41;;;;;;;;;;;;;;;;;;5034159;28;19928;-86
2023/12/25 05:00:07;;;;;;;;;;;;;;;;;;5053340;28;20397;-85
2023/12/25 05:02:33;;;;;;;;;;;;;;;;;;5052815;28;20313;-83
2023/12/25 05:04:59;;;;;;;;;;;;;;;;;;5035885;28;19920;-85
2023/12/25 05:07:25;;;;;;;;;;;;;;;;;;5053103;28;19968;-85
2023/12/25 05:09:51;;;;;;;;;;;;;;;;;;5045191;28;19992;-85
2023/12/25 05:12:17;;;;;;;;;;;;;;;;;;5032274;28;19998;-85
2023/12/25 05:14:43;;;;;;;;;;;;;;;;;;5032262;28;19975;-86
2023/12/25 05:17:09;;;;;;;;;;;;;;;;;;5033623;28;19927;-85
2023/12/25 05:19:35;;;;;;;;;;;;;;;;;;5032440;28;19921;-83
2023/12/25 05:22:02;;;;;;;;;;;;;;;;;;5024905;28;20011;-85
2023/12/25 05:24:28;;;;;;;;;;;;;;;;;;5052908;28;19928;-85
2023/12/25 05:26:54;;;;;;;;;;;;;;;;;;5035652;28;20667;-83
2023/12/25 05:29:20;;;;;;;;;;;;;;;;;;5052106;28;20311;-86
2023/12/25 05:31:46;;;;;;;;;;;;;;;;;;5052660;28;19967;-85
2023/12/25 05:34:12;;;;;;;;;;;;;;;;;;5052214;28;19921;-86
2023/12/25 05:36:37;;;;;;;;;;;;;;;;;;5035338;28;19924;-84
2023/12/25 05:39:05;;;;;;;;;;;;;;;;;;5051763;28;19971;-86
2023/12/25 05:41:30;;;;;;;;;;;;;;;;;;5048259;28;19920;-86
2023/12/25 05:43:56;;;;;;;;;;;;;;;;;;5050368;28;19920;-85
2023/12/25 05:46:22;;;;;;;;;;;;;;;;;;5035844;28;20266;-86
2023/12/25 05:48:48;;;;;;;;;;;;;;;;;;5033836;28;19960;-85
2023/12/25 05:51:14;;;;;;;;;;;;;;;;;;5052534;28;19928;-85
2023/12/25 05:53:40;;;;;;;;;;;;;;;;;;5051684;28;19928;-85
2023/12/25 05:56:06;;;;;;;;;;;;;;;;;;5052313;28;19940;-85
2023/12/25 05:58:32;;;;;;;;;;;;;;;;;;5034644;28;19979;-84
2023/12/25 06:00:59;;;;;;;;;;;;;;;;;;5035457;28;19981;-84
2023/12/25 06:03:25;;;;;;;;;;;;;;;;;;5052459;28;19927;-84
2023/12/25 06:05:51;;;;;;;;;;;;;;;;;;5050856;28;19921;-85
2023/12/25 06:08:17;;;;;;;;;;;;;;;;;;5050672;28;19928;-85
2023/12/25 06:10:43;;;;;;;;;;;;;;;;;;5034822;28;19921;-85
2023/12/25 06:13:09;;;;;;;;;;;;;;;;;;5050533;28;19970;-84
2023/12/25 06:15:35;;;;;;;;;;;;;;;;;;5035431;28;19995;-85
2023/12/25 06:18:01;;;;;;;;;;;;;;;;;;5051585;28;19996;-85
2023/12/25 06:20:27;;;;;;;;;;;;;;;;;;5035136;28;19948;-84
2023/12/25 06:22:53;;;;;;;;;;;;;;;;;;5034820;28;19925;-85
2023/12/25 06:25:19;;;;;;;;;;;;;;;;;;5035243;28;19971;-85
2023/12/25 06:27:45;;;;;;;;;;;;;;;;;;5050396;28;19921;-85
2023/12/25 06:30:11;;;;;;;;;;;;;;;;;;5052149;28;20011;-85
2023/12/25 06:32:37;;;;;;;;;;;;;;;;;;5035150;28;19921;-85
2023/12/25 06:35:03;;;;;;;;;;;;;;;;;;5034021;28;19920;-86
2023/12/25 06:37:29;;;;;;;;;;;;;;;;;;5051807;28;19928;-86
2023/12/25 06:39:55;;;;;;;;;;;;;;;;;;5050305;28;20349;-85
2023/12/25 06:42:21;;;;;;;;;;;;;;;;;;5050593;28;19924;-85
2023/12/25 06:44:47;;;;;;;;;;;;;;;;;;5034623;28;20050;-85
2023/12/25 06:47:13;;;;;;;;;;;;;;;;;;5034981;28;20070;-84
2023/12/25 06:49:39;;;;;;;;;;;;;;;;;;5049908;28;20008;-85
2023/12/25 06:52:05;;;;;;;;;;;;;;;;;;5051007;28;20388;-85
2023/12/25 06:54:31;;;;;;;;;;;;;;;;;;5051253;28;20281;-85
2023/12/25 06:56:57;;;;;;;;;;;;;;;;;;5033735;28;19971;-84
2023/12/25 06:59:23;;;;;;;;;;;;;;;;;;5050450;28;19928;-86
2023/12/25 07:01:49;;;;;;;;;;;;;;;;;;5034395;28;20010;-85
2023/12/25 07:04:15;;;;;;;;;;;;;;;;;;5034135;28;19943;-85
2023/12/25 07:06:41;;;;;;;;;;;;;;;;;;5051285;28;19921;-85
2023/12/25 07:09:09;;;;;;;;;;;;;;;;;;5050674;28;20006;-85
2023/12/25 07:11:35;;;;;;;;;;;;;;;;;;5051476;28;19921;-85
2023/12/25 07:14:01;;;;;;;;;;;;;;;;;;5032618;28;19965;-84
2023/12/25 07:16:27;;;;;;;;;;;;;;;;;;5051508;28;19928;-85
2023/12/25 07:18:53;;;;;;;;;;;;;;;;;;5033729;28;19921;-85
2023/12/25 07:21:19;;;;;;;;;;;;;;;;;;5051116;28;19921;-84
2023/12/25 07:23:45;;;;;;;;;;;;;;;;;;5051062;28;19969;-85
2023/12/25 07:26:11;;;;;;;;;;;;;;;;;;5050058;28;19921;-85
2023/12/25 07:28:36;;;;;;;;;;;;;;;;;;5032553;28;19924;-85
2023/12/25 07:31:02;;;;;;;;;;;;;;;;;;5034045;28;20021;-85
2023/12/25 07:33:28;;;;;;;;;;;;;;;;;;5034135;28;19920;-87
2023/12/25 07:35:54;;;;;;;;;;;;;;;;;;5050182;28;19921;-85
2023/12/25 07:38:20;;;;;;;;;;;;;;;;;;5034309;28;19964;-87
2023/12/25 07:40:46;;;;;;;;;;;;;;;;;;5051180;28;20035;-85
2023/12/25 07:43:12;;;;;;;;;;;;;;;;;;5049102;28;19924;-86
2023/12/25 07:45:38;;;;;;;;;;;;;;;;;;5050882;28;19936;-86
2023/12/25 07:48:04;;;;;;;;;;;;;;;;;;5050499;28;19921;-87
2023/12/25 07:50:31;;;;;;;;;;;;;;;;;;5034285;28;20011;-86
2023/12/25 07:52:57;;;;;;;;;;;;;;;;;;5032803;28;19924;-87
2023/12/25 07:55:23;;;;;;;;;;;;;;;;;;5034480;28;19920;-86
2023/12/25 07:57:49;;;;;;;;;;;;;;;;;;5033220;28;19920;-86
2023/12/25 08:00:14;;;;;;;;;;;;;;;;;;5033230;28;19925;-84
2023/12/25 08:02:40;;;;;;;;;;;;;;;;;;5035613;28;19975;-86
2023/12/25 08:05:06;;;;;;;;;;;;;;;;;;5052931;28;19924;-86
2023/12/25 08:07:32;;;;;;;;;;;;;;;;;;5037839;28;20054;-90
2023/12/25 08:09:58;;;;;;;;;;;;;;;;;;5036740;28;20012;-81
2023/12/25 08:12:28;;;;;;;;;;;;;;;;;;5053239;28;20447;-82
2023/12/25 08:14:54;;;;;;;;;;;;;;;;;;5053304;28;19921;-83
2023/12/25 08:17:22;;;;;;;;;;;;;;;;;;5037540;28;19922;-89
2023/12/25 08:19:48;;;;;;;;;;;;;;;;;;5037059;28;19972;-82
2023/12/25 08:22:14;;;;;;;;;;;;;;;;;;5036920;28;20018;-83
2023/12/25 08:24:40;;;;;;;;;;;;;;;;;;5034189;28;19928;-83
2023/12/25 08:27:05;;;;;;;;;;;;;;;;;;5032560;28;19928;-87
2023/12/25 08:29:46;;;;;;;;;;;;;;;;;;5042199;28;19925;-82
2023/12/25 08:32:12;;;;;;;;;;;;;;;;;;4995891;28;19972;-84
2023/12/25 08:34:38;;;;;;;;;;;;;;;;;;5010814;28;19925;-82
2023/12/25 08:37:04;;;;;;;;;;;;;;;;;;4995241;28;19922;-83
2023/12/25 08:39:49;;;;;;;;;;;;;;;;;;5011076;28;19916;-83
2023/12/25 08:42:15;;;;;;;;;;;;;;;;;;5027670;28;20204;-77
2023/12/25 08:44:41;;;;;;;;;;;;;;;;;;4996821;28;19928;-80
2023/12/25 08:47:09;;;;;;;;;;;;;;;;;;4995961;28;19921;-81
2023/12/25 08:49:35;;;;;;;;;;;;;;;;;;4996541;28;19945;-77
2023/12/25 08:52:00;;;;;;;;;;;;;;;;;;4995785;28;19921;-77
2023/12/25 08:54:28;;;;;;;;;;;;;;;;;;4996308;28;19972;-80
2023/12/25 08:59:58;;;;;;;;;;;;;;;;;;5012085;28;19915;-83
2023/12/25 09:02:24;;;;;;;;;;;;;;;;;;4998152;28;19921;-83
2023/12/25 09:04:51;;;;;;;;;;;;;;;;;;5014869;28;19928;-82
2023/12/25 09:07:18;;;;;;;;;;;;;;;;;;5014712;28;20332;-81
2023/12/25 09:10:06;;;;;;;;;;;;;;;;;;4989214;28;20467;-83
2023/12/25 09:21:45;;;;;;;;;;;;;;;;;;5014587;28;19921;-83
2023/12/25 09:24:45;;;;;;;;;;;;;;;;;;5002672;28;19916;-78
2023/12/25 09:27:11;;;;;;;;;;;;;;;;;;5012715;28;19921;-77
2023/12/25 09:29:37;;;;;;;;;;;;;;;;;;5015013;28;19978;-76
2023/12/25 09:32:03;;;;;;;;;;;;;;;;;;4998068;28;19921;-82
2023/12/25 09:34:29;;;;;;;;;;;;;;;;;;5016332;28;19921;-77
2023/12/25 09:36:57;;;;;;;;;;;;;;;;;;5052576;28;20316;-79
2023/12/25 09:42:10;;;;;;;;;;;;;;;;;;5009137;28;20020;-81
2023/12/25 09:45:25;;;;;;;;;;;;;;;;;;4988909;28;19976;-82
2023/12/25 09:48:16;;;;;;;;;;;;;;;;;;4986004;28;19960;-82
2023/12/25 09:50:54;;;;;;;;;;;;;;;;;;5008501;28;20016;-84
2023/12/25 09:53:20;;;;;;;;;;;;;;;;;;4994181;28;19933;-84
2023/12/25 09:55:46;;;;;;;;;;;;;;;;;;4977930;28;20077;-83
2023/12/25 09:58:12;;;;;;;;;;;;;;;;;;4976534;28;19921;-83
2023/12/25 10:01:14;;;;;;;;;;;;;;;;;;4971575;28;19928;-83
2023/12/25 10:04:00;;;;;;;;;;;;;;;;;;4925460;29;19927;-82
2023/12/25 10:06:51;;;;;;;;;;;;;;;;;;4898213;29;19927;-83
2023/12/25 10:12:57;;;;;;;;;;;;;;;;;;4955746;28;19968;-81
2023/12/25 10:15:25;;;;;;;;;;;;;;;;;;4977679;28;19930;-82
2023/12/25 10:17:57;;;;;;;;;;;;;;;;;;4988714;28;20088;-82
2023/12/25 10:20:35;;;;;;;;;;;;;;;;;;5006290;28;19922;-82
2023/12/25 10:23:02;;;;;;;;;;;;;;;;;;4970326;28;19972;-83
2023/12/25 10:25:34;;;;;;;;;;;;;;;;;;4964649;28;19922;-82
2023/12/25 10:28:25;;;;;;;;;;;;;;;;;;4989533;28;20375;-83
2023/12/25 10:30:54;;;;;;;;;;;;;;;;;;4974220;28;19922;-82
2023/12/25 10:33:38;;;;;;;;;;;;;;;;;;5015918;28;19939;-83
2023/12/25 10:36:20;;;;;;;;;;;;;;;;;;5051179;28;19989;-82
2023/12/25 10:38:46;;;;;;;;;;;;;;;;;;5034433;28;20366;-83
2023/12/25 10:41:18;;;;;;;;;;;;;;;;;;5034873;28;19920;-86
2023/12/25 10:43:44;;;;;;;;;;;;;;;;;;5048179;28;19920;-91
2023/12/25 10:46:10;;;;;;;;;;;;;;;;;;5034830;28;20050;-84
2023/12/25 10:48:38;;;;;;;;;;;;;;;;;;5052203;28;20481;-83
2023/12/25 10:51:04;;;;;;;;;;;;;;;;;;5034224;28;19921;-82
2023/12/25 10:53:47;;;;;;;;;;;;;;;;;;5045199;28;19928;-83
2023/12/25 10:56:13;;;;;;;;;;;;;;;;;;5024332;28;19921;-84
2023/12/25 10:58:45;;;;;;;;;;;;;;;;;;5032832;28;19921;-82
2023/12/25 11:01:29;;;;;;;;;;;;;;;;;;5046322;28;19921;-82
2023/12/25 11:04:11;;;;;;;;;;;;;;;;;;5040445;28;19921;-83
2023/12/25 11:07:00;;;;;;;;;;;;;;;;;;5045695;28;20003;-84
2023/12/25 11:09:27;;;;;;;;;;;;;;;;;;5048936;28;19921;-84
2023/12/25 11:11:55;;;;;;;;;;;;;;;;;;5030754;28;19920;-84
2023/12/25 11:17:21;;;;;;;;;;;;;;;;;;5049927;28;20328;-83
2023/12/25 11:30:05;;;;;;;;;;;;;;;;;;4949808;28;20273;-82
2023/12/25 12:08:27;;;;;;;;;;;;;;;;;;4962740;28;19956;-84
2023/12/25 12:38:33;;;;;;;;;;;;;;;;;;4972568;28;20290;-82
2023/12/25 12:44:37;;;;;;;;;;;;;;;;;;4930700;29;20011;-78
2023/12/25 12:47:22;;;;;;;;;;;;;;;;;;4936459;29;20028;-82
2023/12/25 12:53:17;;;;;;;;;;;;;;;;;;4998569;28;20327;-83
2023/12/25 13:29:52;;;;;;;;;;;;;;;;;;4942511;29;20375;-83
2023/12/25 13:58:07;;;;;;;;;;;;;;;;;;4861514;29;20289;-82
2023/12/25 14:13:27;;;;;;;;;;;;;;;;;;4950843;29;19922;-82
2023/12/25 14:22:43;;;;;;;;;;;;;;;;;;4951782;29;19976;-83
2023/12/25 14:28:49;;;;;;;;;;;;;;;;;;5008953;28;19932;-82
2023/12/25 14:53:15;;;;;;;;;;;;;;;;;;5047393;28;19911;-83
2023/12/25 14:56:09;;;;;;;;;;;;;;;;;;5047895;28;19970;-83
2023/12/25 14:59:14;;;;;;;;;;;;;;;;;;5045859;28;19921;-82
2023/12/25 15:12:00;;;;;;;;;;;;;;;;;;4992696;28;19986;-84
2023/12/25 15:17:12;;;;;;;;;;;;;;;;;;4991675;28;19921;-81
2023/12/25 15:35:17;;;;;;;;;;;;;;;;;;5025799;28;19952;-84
2023/12/25 15:38:28;;;;;;;;;;;;;;;;;;5018468;28;20398;-81
2023/12/25 15:41:17;;;;;;;;;;;;;;;;;;5029130;28;19999;-82
2023/12/25 15:43:49;;;;;;;;;;;;;;;;;;5027988;28;20019;-89
2023/12/25 15:46:21;;;;;;;;;;;;;;;;;;5020271;28;20425;-82
2023/12/25 15:49:24;;;;;;;;;;;;;;;;;;5016125;28;20393;-82
2023/12/25 15:58:46;;;;;;;;;;;;;;;;;;5014672;28;19921;-83
2023/12/25 16:11:48;;;;;;;;;;;;;;;;;;4944044;28;19925;-82
2023/12/25 16:24:24;;;;;;;;;;;;;;;;;;4947459;29;19953;-83
2023/12/25 16:33:33;;;;;;;;;;;;;;;;;;4953798;29;19964;-83
2023/12/25 16:39:22;;;;;;;;;;;;;;;;;;4968717;28;19929;-83
2023/12/25 16:41:48;;;;;;;;;;;;;;;;;;4956930;28;19922;-86
2023/12/25 16:44:15;;;;;;;;;;;;;;;;;;4983254;28;19936;-86
2023/12/25 16:46:41;;;;;;;;;;;;;;;;;;4975101;28;19922;-79
2023/12/25 16:49:07;;;;;;;;;;;;;;;;;;4958096;28;19957;-78
2023/12/25 16:51:39;;;;;;;;;;;;;;;;;;4991868;28;19940;-80
2023/12/25 16:54:05;;;;;;;;;;;;;;;;;;4970323;28;20016;-81
2023/12/25 16:56:32;;;;;;;;;;;;;;;;;;4965317;28;20029;-81
2023/12/25 16:58:58;;;;;;;;;;;;;;;;;;4968295;28;19921;-83
2023/12/25 17:01:24;;;;;;;;;;;;;;;;;;4972262;28;19922;-82
2023/12/25 17:03:50;;;;;;;;;;;;;;;;;;4965793;28;19929;-81
2023/12/25 17:06:16;;;;;;;;;;;;;;;;;;4975515;28;19925;-81
2023/12/25 17:08:42;;;;;;;;;;;;;;;;;;4991650;28;20375;-80
2023/12/25 17:11:08;;;;;;;;;;;;;;;;;;5008459;28;19928;-79
2023/12/25 17:13:40;;;;;;;;;;;;;;;;;;5030520;28;20015;-78
2023/12/25 17:16:09;;;;;;;;;;;;;;;;;;5052962;28;20012;-85
2023/12/25 17:18:35;;;;;;;;;;;;;;;;;;5053076;28;20039;-83
2023/12/25 17:21:02;;;;;;;;;;;;;;;;;;5051531;28;19928;-85
2023/12/25 17:23:28;;;;;;;;;;;;;;;;;;5049917;28;19995;-84
2023/12/25 17:25:54;;;;;;;;;;;;;;;;;;5044411;28;19970;-81
2023/12/25 17:28:20;;;;;;;;;;;;;;;;;;5034445;28;20012;-85
2023/12/25 17:30:51;;;;;;;;;;;;;;;;;;5035338;28;19928;-85
2023/12/25 17:33:17;;;;;;;;;;;;;;;;;;5034987;28;19924;-86
2023/12/25 17:35:43;;;;;;;;;;;;;;;;;;5051029;28;19920;-82
2023/12/25 17:38:09;;;;;;;;;;;;;;;;;;5060827;28;19973;-83
2023/12/25 17:40:35;;;;;;;;;;;;;;;;;;5054959;28;19921;-82
2023/12/25 17:43:02;;;;;;;;;;;;;;;;;;5034947;28;19943;-84
2023/12/25 17:45:28;;;;;;;;;;;;;;;;;;5033231;28;19921;-79
2023/12/25 17:47:54;;;;;;;;;;;;;;;;;;5035365;28;20011;-79
2023/12/25 17:50:20;;;;;;;;;;;;;;;;;;5050388;28;20618;-77
2023/12/25 17:52:48;;;;;;;;;;;;;;;;;;5051924;28;19921;-81
2023/12/25 17:55:14;;;;;;;;;;;;;;;;;;5034465;28;19920;-80
2023/12/25 17:57:40;;;;;;;;;;;;;;;;;;5051523;28;19970;-79
2023/12/25 18:00:05;;;;;;;;;;;;;;;;;;5034518;28;19921;-77
2023/12/25 18:02:31;;;;;;;;;;;;;;;;;;5051225;28;19921;-79
2023/12/25 18:04:57;;;;;;;;;;;;;;;;;;5050449;28;20024;-79
2023/12/25 18:07:23;;;;;;;;;;;;;;;;;;5034297;28;19924;-80
2023/12/25 18:09:50;;;;;;;;;;;;;;;;;;5050749;28;19921;-78
2023/12/25 18:12:16;;;;;;;;;;;;;;;;;;5050975;28;19932;-83
2023/12/25 18:14:44;;;;;;;;;;;;;;;;;;5051208;28;19944;-80
2023/12/25 18:17:10;;;;;;;;;;;;;;;;;;5051323;28;19920;-79
2023/12/25 18:19:35;;;;;;;;;;;;;;;;;;5050931;28;19928;-80
2023/12/25 18:22:01;;;;;;;;;;;;;;;;;;5051146;28;19921;-79
2023/12/25 18:24:27;;;;;;;;;;;;;;;;;;5035382;28;20001;-81
2023/12/25 18:26:53;;;;;;;;;;;;;;;;;;5037966;28;19921;-80
2023/12/25 18:29:19;;;;;;;;;;;;;;;;;;5035346;28;19920;-83
2023/12/25 18:31:45;;;;;;;;;;;;;;;;;;5050992;28;19944;-84
2023/12/25 18:34:11;;;;;;;;;;;;;;;;;;5050012;28;20027;-79
2023/12/25 18:36:37;;;;;;;;;;;;;;;;;;5051290;28;20007;-82
2023/12/25 18:39:03;;;;;;;;;;;;;;;;;;5045045;28;19927;-81
2023/12/25 18:41:29;;;;;;;;;;;;;;;;;;5028330;28;20284;-81
2023/12/25 18:43:56;;;;;;;;;;;;;;;;;;5041273;28;19927;-81
2023/12/25 18:46:22;;;;;;;;;;;;;;;;;;5033357;28;19931;-80
2023/12/25 18:48:48;;;;;;;;;;;;;;;;;;5033225;28;20012;-80
2023/12/25 18:51:14;;;;;;;;;;;;;;;;;;5048954;28;20369;-79
2023/12/25 18:53:40;;;;;;;;;;;;;;;;;;5049500;28;19928;-78
2023/12/25 18:56:06;;;;;;;;;;;;;;;;;;5052079;28;19920;-79
2023/12/25 18:58:32;;;;;;;;;;;;;;;;;;5032695;28;20000;-79
2023/12/25 19:00:58;;;;;;;;;;;;;;;;;;5050630;28;20366;-80
2023/12/25 19:03:25;;;;;;;;;;;;;;;;;;5033043;28;19929;-80
2023/12/25 19:05:51;;;;;;;;;;;;;;;;;;5050311;28;20007;-81
2023/12/25 19:08:17;;;;;;;;;;;;;;;;;;5029680;28;20119;-81
2023/12/25 19:10:43;;;;;;;;;;;;;;;;;;5021505;28;19928;-82
2023/12/25 19:13:09;;;;;;;;;;;;;;;;;;5031020;28;19967;-82
2023/12/25 19:15:35;;;;;;;;;;;;;;;;;;5050424;28;20384;-81
2023/12/25 19:18:01;;;;;;;;;;;;;;;;;;5049895;28;20434;-81
2023/12/25 19:20:27;;;;;;;;;;;;;;;;;;5029922;28;19952;-81
2023/12/25 19:22:53;;;;;;;;;;;;;;;;;;5044369;28;20007;-82
2023/12/25 19:25:19;;;;;;;;;;;;;;;;;;5021699;28;19929;-81
2023/12/25 19:27:45;;;;;;;;;;;;;;;;;;5048943;28;20320;-81
2023/12/25 19:30:11;;;;;;;;;;;;;;;;;;5033282;28;19928;-81
2023/12/25 19:32:37;;;;;;;;;;;;;;;;;;5044056;28;20618;-82
2023/12/25 19:35:03;;;;;;;;;;;;;;;;;;5030053;28;19920;-81
2023/12/25 19:37:29;;;;;;;;;;;;;;;;;;5019665;28;19924;-82
2023/12/25 19:39:55;;;;;;;;;;;;;;;;;;5032656;28;20029;-83
2023/12/25 19:42:23;;;;;;;;;;;;;;;;;;5032535;28;19951;-82
2023/12/25 19:44:51;;;;;;;;;;;;;;;;;;5032239;28;19921;-82
2023/12/25 19:47:17;;;;;;;;;;;;;;;;;;5047913;28;20398;-83
2023/12/25 19:49:43;;;;;;;;;;;;;;;;;;5048776;28;19972;-84
2023/12/25 19:52:10;;;;;;;;;;;;;;;;;;5017830;28;20366;-83
2023/12/25 19:54:35;;;;;;;;;;;;;;;;;;5043740;28;19921;-83
2023/12/25 19:57:01;;;;;;;;;;;;;;;;;;5050069;28;19921;-83
2023/12/25 19:59:27;;;;;;;;;;;;;;;;;;5035831;28;19933;-82
2023/12/25 20:01:53;;;;;;;;;;;;;;;;;;5036789;28;19983;-83
2023/12/25 20:04:19;;;;;;;;;;;;;;;;;;5030456;28;19927;-83
2023/12/25 20:06:45;;;;;;;;;;;;;;;;;;5022362;28;19925;-83
2023/12/25 20:09:11;;;;;;;;;;;;;;;;;;5047255;28;19956;-82
2023/12/25 20:11:37;;;;;;;;;;;;;;;;;;5030828;28;19975;-83
2023/12/25 20:14:04;;;;;;;;;;;;;;;;;;5030776;28;19927;-83
2023/12/25 20:16:29;;;;;;;;;;;;;;;;;;5053022;28;20389;-83
2023/12/25 20:18:56;;;;;;;;;;;;;;;;;;5053330;28;19925;-83
2023/12/25 20:21:22;;;;;;;;;;;;;;;;;;5031185;28;19928;-83
2023/12/25 20:23:47;;;;;;;;;;;;;;;;;;5035978;28;19936;-82
2023/12/25 20:26:14;;;;;;;;;;;;;;;;;;5041672;28;19943;-83
2023/12/25 20:28:39;;;;;;;;;;;;;;;;;;5034561;28;20321;-82
2023/12/25 20:31:05;;;;;;;;;;;;;;;;;;5022161;28;19925;-83
2023/12/25 20:33:31;;;;;;;;;;;;;;;;;;5045369;28;19921;-83
2023/12/25 20:36:00;;;;;;;;;;;;;;;;;;5050203;28;20006;-83
2023/12/25 20:38:26;;;;;;;;;;;;;;;;;;5031607;28;19959;-82
2023/12/25 20:40:52;;;;;;;;;;;;;;;;;;5024944;28;20018;-83
2023/12/25 20:43:18;;;;;;;;;;;;;;;;;;5048468;28;19920;-83
2023/12/25 20:45:44;;;;;;;;;;;;;;;;;;5022144;28;19920;-83
2023/12/25 20:48:10;;;;;;;;;;;;;;;;;;5028665;28;20059;-83
2023/12/25 20:50:36;;;;;;;;;;;;;;;;;;5032532;28;20417;-83
2023/12/25 20:53:02;;;;;;;;;;;;;;;;;;5036088;28;20274;-84
2023/12/25 20:55:29;;;;;;;;;;;;;;;;;;5032706;28;19921;-83
2023/12/25 20:57:55;;;;;;;;;;;;;;;;;;5035082;28;19927;-83
2023/12/25 21:00:21;;;;;;;;;;;;;;;;;;5035222;28;19925;-83
2023/12/25 21:02:47;;;;;;;;;;;;;;;;;;5036050;28;19924;-84
2023/12/25 21:05:13;;;;;;;;;;;;;;;;;;5035443;28;19921;-81
2023/12/25 21:07:39;;;;;;;;;;;;;;;;;;5051133;28;20289;-82
2023/12/25 21:10:06;;;;;;;;;;;;;;;;;;5051348;28;19921;-83
2023/12/25 21:12:32;;;;;;;;;;;;;;;;;;5028971;28;19921;-82
2023/12/25 21:14:58;;;;;;;;;;;;;;;;;;5044573;28;19947;-81
2023/12/25 21:17:24;;;;;;;;;;;;;;;;;;5033344;28;19925;-82
2023/12/25 21:19:50;;;;;;;;;;;;;;;;;;5046388;28;19974;-83
2023/12/25 21:22:16;;;;;;;;;;;;;;;;;;5028374;28;19921;-82